createdAt,value
2018-08-20T00:00:52.528Z,64.78
2018-08-20T00:05:56.852Z,64.65
2018-08-20T00:11:00.544Z,64.09
2018-08-20T00:16:04.152Z,63.92
2018-08-20T00:21:07.900Z,64.75
2018-08-20T00:26:11.558Z,64.36
2018-08-20T00:31:17.006Z,64.38
2018-08-20T00:36:20.549Z,64.29
2018-08-20T00:41:24.206Z,65.24
2018-08-20T00:46:27.873Z,65.53
2018-08-20T00:51:32.366Z,65.09
2018-08-20T00:56:36.056Z,65.42
2018-08-20T01:01:39.829Z,65.61
2018-08-20T01:06:43.586Z,65.87
2018-08-20T01:11:47.191Z,66.58
2018-08-20T01:16:50.715Z,66.92
2018-08-20T01:21:54.324Z,66.30
2018-08-20T01:26:57.878Z,66.61
2018-08-20T01:32:02.034Z,67.35
2018-08-20T01:37:05.640Z,67.55
2018-08-20T01:42:09.274Z,67.68
2018-08-20T01:47:13.015Z,68.23
2018-08-20T01:52:16.711Z,68.53
2018-08-20T01:57:20.277Z,68.58
2018-08-20T02:02:24.022Z,69.36
2018-08-20T02:07:28.401Z,69.21
2018-08-20T02:12:32.138Z,70.09
2018-08-20T02:17:35.760Z,70.43
2018-08-20T02:22:39.377Z,70.75
2018-08-20T02:27:43.081Z,70.33
2018-08-20T02:32:46.810Z,70.93
2018-08-20T02:37:50.657Z,70.78
2018-08-20T02:42:54.398Z,71.79
2018-08-20T02:47:58.107Z,71.00
2018-08-20T02:53:01.830Z,71.10
2018-08-20T02:58:05.648Z,71.67
2018-08-20T03:03:09.314Z,71.87
2018-08-20T03:08:12.938Z,71.66
2018-08-20T03:13:16.619Z,72.75
2018-08-20T03:18:20.133Z,72.15
2018-08-20T03:23:24.077Z,71.97
2018-08-20T03:28:27.745Z,71.85
2018-08-20T03:33:31.389Z,72.90
2018-08-20T03:38:34.898Z,72.55
2018-08-20T03:43:38.518Z,73.19
2018-08-20T03:48:42.153Z,73.36
2018-08-20T03:53:45.813Z,73.75
2018-08-20T03:58:49.714Z,73.21
2018-08-20T04:03:54.245Z,72.66
2018-08-20T04:08:57.900Z,73.17
2018-08-20T04:14:01.657Z,73.59
2018-08-20T04:19:07.519Z,74.00
2018-08-20T04:24:11.192Z,73.50
2018-08-20T04:29:14.718Z,74.05
2018-08-20T04:34:18.307Z,74.66
2018-08-20T04:39:21.836Z,74.73
2018-08-20T04:44:26.041Z,74.00
2018-08-20T04:49:29.560Z,74.23
2018-08-20T04:54:33.204Z,74.23
2018-08-20T04:59:36.842Z,74.13
2018-08-20T05:04:40.465Z,73.06
2018-08-20T05:09:43.988Z,73.25
2018-08-20T05:14:48.482Z,73.68
2018-08-20T05:19:52.189Z,74.06
2018-08-20T05:24:55.844Z,73.96
2018-08-20T05:29:59.360Z,75.03
2018-08-20T05:35:03.668Z,76.01
2018-08-20T05:40:07.385Z,73.92
2018-08-20T05:45:12.134Z,73.66
2018-08-20T05:50:15.884Z,73.79
2018-08-20T05:55:19.566Z,74.64
2018-08-20T06:00:33.104Z,74.82
2018-08-20T06:05:36.761Z,75.32
2018-08-20T06:10:40.286Z,74.96
2018-08-20T06:15:44.034Z,74.92
2018-08-20T06:20:48.371Z,75.30
2018-08-20T06:25:52.031Z,75.41
2018-08-20T06:30:55.542Z,75.15
2018-08-20T06:35:59.160Z,75.00
2018-08-20T06:41:02.865Z,75.82
2018-08-20T06:46:06.615Z,75.02
2018-08-20T06:51:10.390Z,74.87
2018-08-20T06:56:14.038Z,74.29
2018-08-20T07:01:17.656Z,74.64
2018-08-20T07:06:21.403Z,74.86
2018-08-20T07:11:24.880Z,73.37
2018-08-20T07:16:29.117Z,74.41
2018-08-20T07:21:32.643Z,74.45
2018-08-20T07:26:36.314Z,74.04
2018-08-20T07:31:39.849Z,72.72
2018-08-20T07:36:43.451Z,71.76
2018-08-20T07:41:47.024Z,72.47
2018-08-20T07:46:50.654Z,72.83
2018-08-20T07:51:56.727Z,71.95
2018-08-20T07:57:00.375Z,71.58
2018-08-20T08:02:04.031Z,70.77
2018-08-20T08:07:08.258Z,70.64
2018-08-20T08:12:11.952Z,68.72
2018-08-20T08:17:16.464Z,67.77
2018-08-20T08:22:20.130Z,68.08
2018-08-20T08:27:23.958Z,68.11
2018-08-20T08:32:27.593Z,68.87
2018-08-20T08:37:31.217Z,68.01
2018-08-20T08:42:35.123Z,66.81
2018-08-20T08:47:38.731Z,67.38
2018-08-20T08:52:47.632Z,67.56
2018-08-20T08:57:51.409Z,68.24
2018-08-20T09:02:55.025Z,67.81
2018-08-20T09:07:58.698Z,67.81
2018-08-20T09:13:02.353Z,67.55
2018-08-20T09:18:06.817Z,67.95
2018-08-20T09:23:10.621Z,66.21
2018-08-20T09:28:14.311Z,65.56
2018-08-20T09:33:18.140Z,65.16
2018-08-20T09:38:21.822Z,64.70
2018-08-20T09:43:26.061Z,63.59
2018-08-20T09:48:30.019Z,62.11
2018-08-20T09:53:33.623Z,61.44
2018-08-20T09:58:37.177Z,59.83
2018-08-20T10:03:46.952Z,61.52
2018-08-20T10:08:50.922Z,61.21
2018-08-20T10:13:55.912Z,61.99
2018-08-20T10:18:59.681Z,61.45
2018-08-20T10:24:03.261Z,61.22
2018-08-20T10:29:06.820Z,60.72
2018-08-20T10:34:11.297Z,61.45
2018-08-20T10:39:15.555Z,60.49
2018-08-20T10:44:19.172Z,60.52
2018-08-20T10:49:22.750Z,59.71
2018-08-20T10:54:26.953Z,60.90
2018-08-20T10:59:42.573Z,62.25
2018-08-20T11:04:46.201Z,61.34
2018-08-20T11:09:49.908Z,62.58
2018-08-20T11:14:53.538Z,63.05
2018-08-20T11:19:57.057Z,63.45
2018-08-20T11:25:00.700Z,64.04
2018-08-20T11:30:05.310Z,64.09
2018-08-20T11:35:10.128Z,67.71
2018-08-20T11:40:13.885Z,70.39
2018-08-20T11:45:17.495Z,73.34
2018-08-20T11:50:21.108Z,74.15
2018-08-20T11:55:24.931Z,75.46
2018-08-20T12:00:33.748Z,75.68
2018-08-20T12:05:37.409Z,76.95
2018-08-20T12:10:40.926Z,75.27
2018-08-20T12:15:44.675Z,72.71
2018-08-20T12:20:48.220Z,72.03
2018-08-20T12:25:52.349Z,71.68
2018-08-20T12:30:56.109Z,71.76
2018-08-20T12:36:00.122Z,72.90
2018-08-20T12:41:03.640Z,71.63
2018-08-20T12:46:07.266Z,69.98
2018-08-20T12:51:10.856Z,69.50
2018-08-20T12:56:14.471Z,67.89
2018-08-20T13:01:18.255Z,65.51
2018-08-20T13:06:21.859Z,64.91
2018-08-20T13:11:25.501Z,63.54
2018-08-20T13:16:29.236Z,63.77
2018-08-20T13:21:32.754Z,62.03
2018-08-20T13:26:37.288Z,61.75
2018-08-20T13:31:41.334Z,60.75
2018-08-20T13:36:45.320Z,59.47
2018-08-20T13:41:48.988Z,59.12
2018-08-20T13:46:52.705Z,59.36
2018-08-20T13:51:56.213Z,57.18
2018-08-20T13:56:59.870Z,56.08
2018-08-20T14:02:04.121Z,55.99
2018-08-20T14:07:13.841Z,55.63
2018-08-20T14:12:17.489Z,55.21
2018-08-20T14:17:21.101Z,54.64
2018-08-20T14:22:25.448Z,53.78
2018-08-20T14:27:29.080Z,54.50
2018-08-20T14:32:32.571Z,54.26
2018-08-20T14:37:36.197Z,53.71
2018-08-20T14:42:39.676Z,53.50
2018-08-20T14:47:44.686Z,52.40
2018-08-20T14:52:48.298Z,52.55
2018-08-20T14:57:51.954Z,53.65
2018-08-20T15:02:55.475Z,53.50
2018-08-20T15:07:59.068Z,52.92
2018-08-20T15:13:02.645Z,53.29
2018-08-20T15:18:06.560Z,52.89
2018-08-20T15:23:10.656Z,52.39
2018-08-20T15:28:14.308Z,52.38
2018-08-20T15:33:17.918Z,51.44
2018-08-20T15:38:21.482Z,51.39
2018-08-20T15:43:25.117Z,52.17
2018-08-20T15:48:28.745Z,51.97
2018-08-20T15:53:32.416Z,52.29
2018-08-20T15:58:36.000Z,52.94
2018-08-20T16:03:39.632Z,53.30
2018-08-20T16:08:43.267Z,52.76
2018-08-20T16:13:46.764Z,53.63
2018-08-20T16:18:51.432Z,53.38
2018-08-20T16:23:54.971Z,53.50
2018-08-20T16:28:58.607Z,54.26
2018-08-20T16:34:02.133Z,53.88
2018-08-20T16:39:09.696Z,52.88
2018-08-20T16:44:13.307Z,54.24
2018-08-20T16:49:17.377Z,54.69
2018-08-20T16:54:20.966Z,53.94
2018-08-20T16:59:24.656Z,54.70
2018-08-20T17:04:43.058Z,54.50
2018-08-20T17:09:47.086Z,54.82
2018-08-20T17:14:50.783Z,54.49
2018-08-20T17:19:54.386Z,54.54
2018-08-20T17:24:58.017Z,54.66
2018-08-20T17:30:01.658Z,55.62
2018-08-20T17:35:09.372Z,54.90
2018-08-20T17:40:13.092Z,55.58
2018-08-20T17:45:31.973Z,56.32
2018-08-20T17:50:42.992Z,56.70
2018-08-20T17:55:46.645Z,57.85
2018-08-20T18:00:53.422Z,58.30
2018-08-20T18:06:01.139Z,58.93
2018-08-20T18:11:05.676Z,59.00
2018-08-20T18:16:11.342Z,59.06
2018-08-20T18:21:15.045Z,59.68
2018-08-20T18:26:18.580Z,59.90
2018-08-20T18:31:24.626Z,60.53
2018-08-20T18:36:31.907Z,60.84
2018-08-20T18:42:17.948Z,62.25
2018-08-20T18:47:21.527Z,60.84
2018-08-20T18:52:27.626Z,60.38
2018-08-20T18:57:34.698Z,60.49
2018-08-20T19:02:42.561Z,60.69
2018-08-20T19:07:46.662Z,60.31
2018-08-20T19:12:50.476Z,60.51
2018-08-20T19:17:54.839Z,61.27
2018-08-20T19:22:58.636Z,61.31
2018-08-20T19:28:07.801Z,61.79
2018-08-20T19:33:16.514Z,62.07
2018-08-20T19:38:20.796Z,62.34
2018-08-20T19:43:24.546Z,62.44
2018-08-20T19:48:28.246Z,63.24
2018-08-20T19:53:31.960Z,64.35
2018-08-20T19:58:35.712Z,64.91
2018-08-20T20:03:44.604Z,64.64
2018-08-20T20:08:48.847Z,65.48
2018-08-20T20:13:55.991Z,66.54
2018-08-20T20:18:59.916Z,66.37
2018-08-20T20:24:03.699Z,67.27
2018-08-20T20:29:08.676Z,67.72
2018-08-20T20:34:12.307Z,67.94
2018-08-20T20:39:16.061Z,68.43
2018-08-20T20:44:19.729Z,68.55
2018-08-20T20:49:23.266Z,68.69
2018-08-20T20:54:26.898Z,68.80
2018-08-20T20:59:30.643Z,68.97
2018-08-20T21:04:36.190Z,68.76
2018-08-20T21:09:45.017Z,69.57
2018-08-20T21:14:49.018Z,70.03
2018-08-20T21:19:52.494Z,70.32
2018-08-20T21:24:56.188Z,70.13
2018-08-20T21:30:01.144Z,70.47
2018-08-20T21:35:05.173Z,69.82
2018-08-20T21:40:09.398Z,71.11
2018-08-20T21:45:13.694Z,71.07
2018-08-20T21:50:17.386Z,70.93
2018-08-20T21:55:21.056Z,71.05
2018-08-20T22:00:32.037Z,71.31
2018-08-20T22:05:35.713Z,71.49
2018-08-20T22:10:39.291Z,72.84
2018-08-20T22:15:43.041Z,72.02
2018-08-20T22:20:46.878Z,73.08
2018-08-20T22:25:55.094Z,72.72
2018-08-20T22:30:58.714Z,73.19
2018-08-20T22:36:02.855Z,72.89
2018-08-20T22:41:06.998Z,72.11
2018-08-20T22:46:10.652Z,72.44
2018-08-20T22:51:16.935Z,72.99
2018-08-20T22:56:36.701Z,72.42
2018-08-20T23:01:40.498Z,71.57
2018-08-20T23:06:44.518Z,72.00
2018-08-20T23:11:48.095Z,71.57
2018-08-20T23:16:53.362Z,73.05
2018-08-20T23:21:56.885Z,74.35
2018-08-20T23:27:00.626Z,74.82
2018-08-20T23:32:04.329Z,74.92
2018-08-20T23:37:08.866Z,74.83
2018-08-20T23:42:12.494Z,74.40
2018-08-20T23:47:16.192Z,74.62
2018-08-20T23:52:19.849Z,74.63
2018-08-20T23:57:24.333Z,74.14
